sensor_id;sensor_type;location;lat;lon;timestamp;temperature;humidity
20496;DHT22;10406;54.132;17.968;2022-09-17T00:00:45;10.50;99.90
20496;DHT22;10406;54.132;17.968;2022-09-17T00:06:24;10.40;99.90
20496;DHT22;10406;54.132;17.968;2022-09-17T00:11:57;10.40;99.90
20496;DHT22;10406;54.132;17.968;2022-09-17T00:17:30;10.50;99.90
20496;DHT22;10406;54.132;17.968;2022-09-17T00:23:01;10.60;99.90
20496;DHT22;10406;54.132;17.968;2022-09-17T00:28:31;10.70;99.90
20496;DHT22;10406;54.132;17.968;2022-09-17T00:34:12;10.70;99.90
20496;DHT22;10406;54.132;17.968;2022-09-17T00:39:49;10.80;99.90
20496;DHT22;10406;54.132;17.968;2022-09-17T00:45:22;10.70;99.90
20496;DHT22;10406;54.132;17.968;2022-09-17T00:50:59;10.70;99.90
20496;DHT22;10406;54.132;17.968;2022-09-17T00:56:33;10.50;99.90
20496;DHT22;10406;54.132;17.968;2022-09-17T01:02:08;10.70;99.90
20496;DHT22;10406;54.132;17.968;2022-09-17T01:08:06;10.60;99.90
20496;DHT22;10406;54.132;17.968;2022-09-17T01:13:55;11.30;99.90
20496;DHT22;10406;54.132;17.968;2022-09-17T01:19:53;10.50;99.90
20496;DHT22;10406;54.132;17.968;2022-09-17T01:25:52;10.40;99.90
20496;DHT22;10406;54.132;17.968;2022-09-17T01:31:34;10.50;99.90
20496;DHT22;10406;54.132;17.968;2022-09-17T01:37:22;10.60;99.90
20496;DHT22;10406;54.132;17.968;2022-09-17T01:43:01;10.70;99.90
20496;DHT22;10406;54.132;17.968;2022-09-17T01:48:48;10.70;99.90
20496;DHT22;10406;54.132;17.968;2022-09-17T01:54:24;10.70;99.90
20496;DHT22;10406;54.132;17.968;2022-09-17T02:00:02;10.70;99.90
20496;DHT22;10406;54.132;17.968;2022-09-17T02:05:44;10.70;99.90
20496;DHT22;10406;54.132;17.968;2022-09-17T02:11:17;10.70;99.90
20496;DHT22;10406;54.132;17.968;2022-09-17T02:16:51;10.70;99.90
20496;DHT22;10406;54.132;17.968;2022-09-17T02:22:36;10.70;99.90
20496;DHT22;10406;54.132;17.968;2022-09-17T02:28:19;10.80;99.90
20496;DHT22;10406;54.132;17.968;2022-09-17T02:34:00;10.80;99.90
20496;DHT22;10406;54.132;17.968;2022-09-17T02:39:33;10.80;99.90
20496;DHT22;10406;54.132;17.968;2022-09-17T02:45:11;10.70;99.90
20496;DHT22;10406;54.132;17.968;2022-09-17T02:51:04;10.70;99.90
20496;DHT22;10406;54.132;17.968;2022-09-17T02:56:54;10.70;99.90
20496;DHT22;10406;54.132;17.968;2022-09-17T03:02:26;10.70;99.90
20496;DHT22;10406;54.132;17.968;2022-09-17T03:08:01;10.70;99.90
20496;DHT22;10406;54.132;17.968;2022-09-17T03:13:41;10.80;99.90
20496;DHT22;10406;54.132;17.968;2022-09-17T03:19:14;10.80;99.90
20496;DHT22;10406;54.132;17.968;2022-09-17T03:24:43;10.80;99.90
20496;DHT22;10406;54.132;17.968;2022-09-17T03:44:38;10.80;99.90
20496;DHT22;10406;54.132;17.968;2022-09-17T03:50:04;10.70;99.90
20496;DHT22;10406;54.132;17.968;2022-09-17T03:55:30;10.70;99.90
20496;DHT22;10406;54.132;17.968;2022-09-17T04:01:04;10.70;99.90
20496;DHT22;10406;54.132;17.968;2022-09-17T04:06:34;10.70;99.90
20496;DHT22;10406;54.132;17.968;2022-09-17T04:12:14;10.70;99.90
20496;DHT22;10406;54.132;17.968;2022-09-17T04:17:55;10.60;99.90
20496;DHT22;10406;54.132;17.968;2022-09-17T04:23:28;10.50;99.90
20496;DHT22;10406;54.132;17.968;2022-09-17T04:28:59;10.50;99.90
20496;DHT22;10406;54.132;17.968;2022-09-17T04:34:36;10.40;99.90
20496;DHT22;10406;54.132;17.968;2022-09-17T04:40:05;7.80;99.90
20496;DHT22;10406;54.132;17.968;2022-09-17T04:45:36;10.50;99.90
20496;DHT22;10406;54.132;17.968;2022-09-17T04:51:11;10.50;99.90
20496;DHT22;10406;54.132;17.968;2022-09-17T04:56:39;10.50;99.90
20496;DHT22;10406;54.132;17.968;2022-09-17T05:02:17;10.70;99.90
20496;DHT22;10406;54.132;17.968;2022-09-17T05:07:55;10.80;99.90
20496;DHT22;10406;54.132;17.968;2022-09-17T05:13:25;11.00;99.90
20496;DHT22;10406;54.132;17.968;2022-09-17T05:19:06;11.10;99.90
20496;DHT22;10406;54.132;17.968;2022-09-17T05:24:51;11.30;99.90
20496;DHT22;10406;54.132;17.968;2022-09-17T05:30:27;11.50;99.90
20496;DHT22;10406;54.132;17.968;2022-09-17T05:35:58;11.50;99.90
20496;DHT22;10406;54.132;17.968;2022-09-17T05:48:05;11.80;99.90
20496;DHT22;10406;54.132;17.968;2022-09-17T05:53:29;11.90;99.90
20496;DHT22;10406;54.132;17.968;2022-09-17T05:59:03;12.10;99.90
20496;DHT22;10406;54.132;17.968;2022-09-17T06:04:38;11.90;99.90
20496;DHT22;10406;54.132;17.968;2022-09-17T06:10:14;11.90;99.90
20496;DHT22;10406;54.132;17.968;2022-09-17T06:15:54;12.00;99.90
20496;DHT22;10406;54.132;17.968;2022-09-17T06:21:44;12.10;99.90
20496;DHT22;10406;54.132;17.968;2022-09-17T06:27:32;12.40;99.90
20496;DHT22;10406;54.132;17.968;2022-09-17T06:33:08;12.60;99.90
20496;DHT22;10406;54.132;17.968;2022-09-17T06:38:46;12.90;99.90
20496;DHT22;10406;54.132;17.968;2022-09-17T06:44:29;13.30;99.90
20496;DHT22;10406;54.132;17.968;2022-09-17T06:55:46;13.50;99.90
20496;DHT22;10406;54.132;17.968;2022-09-17T07:01:28;13.40;99.90
20496;DHT22;10406;54.132;17.968;2022-09-17T07:06:50;13.20;99.90
20496;DHT22;10406;54.132;17.968;2022-09-17T07:12:30;13.00;99.90
20496;DHT22;10406;54.132;17.968;2022-09-17T07:18:06;12.80;99.90
20496;DHT22;10406;54.132;17.968;2022-09-17T07:23:30;12.90;99.90
20496;DHT22;10406;54.132;17.968;2022-09-17T07:29:19;13.20;99.90
20496;DHT22;10406;54.132;17.968;2022-09-17T07:41:05;13.80;99.90
20496;DHT22;10406;54.132;17.968;2022-09-17T07:46:27;14.00;99.90
20496;DHT22;10406;54.132;17.968;2022-09-17T07:51:52;14.30;99.90
20496;DHT22;10406;54.132;17.968;2022-09-17T07:57:15;14.80;99.90
20496;DHT22;10406;54.132;17.968;2022-09-17T08:02:39;15.00;99.90
20496;DHT22;10406;54.132;17.968;2022-09-17T08:08:09;15.00;99.90
20496;DHT22;10406;54.132;17.968;2022-09-17T08:13:39;15.30;99.90
20496;DHT22;10406;54.132;17.968;2022-09-17T08:19:00;15.10;99.90
20496;DHT22;10406;54.132;17.968;2022-09-17T08:24:21;15.10;99.90
20496;DHT22;10406;54.132;17.968;2022-09-17T08:29:58;15.50;99.90
20496;DHT22;10406;54.132;17.968;2022-09-17T08:35:23;15.90;99.90
20496;DHT22;10406;54.132;17.968;2022-09-17T08:41:11;16.30;99.90
20496;DHT22;10406;54.132;17.968;2022-09-17T08:46:46;16.50;99.90
20496;DHT22;10406;54.132;17.968;2022-09-17T08:52:50;16.70;99.90
20496;DHT22;10406;54.132;17.968;2022-09-17T09:10:26;17.60;99.90
20496;DHT22;10406;54.132;17.968;2022-09-17T09:16:05;17.80;99.90
20496;DHT22;10406;54.132;17.968;2022-09-17T09:21:28;17.90;99.90
20496;DHT22;10406;54.132;17.968;2022-09-17T09:27:01;17.80;99.90
20496;DHT22;10406;54.132;17.968;2022-09-17T09:32:39;17.90;99.90
20496;DHT22;10406;54.132;17.968;2022-09-17T09:38:13;17.90;99.90
20496;DHT22;10406;54.132;17.968;2022-09-17T09:44:03;18.00;99.90
20496;DHT22;10406;54.132;17.968;2022-09-17T09:49:49;18.30;99.90
20496;DHT22;10406;54.132;17.968;2022-09-17T10:01:48;17.80;99.90
20496;DHT22;10406;54.132;17.968;2022-09-17T10:07:12;18.20;99.90
20496;DHT22;10406;54.132;17.968;2022-09-17T10:12:39;18.50;99.90
20496;DHT22;10406;54.132;17.968;2022-09-17T10:18:24;18.70;99.90
20496;DHT22;10406;54.132;17.968;2022-09-17T10:24:22;17.90;99.90
20496;DHT22;10406;54.132;17.968;2022-09-17T10:30:14;16.30;99.90
20496;DHT22;10406;54.132;17.968;2022-09-17T10:35:37;15.30;99.90
20496;DHT22;10406;54.132;17.968;2022-09-17T10:41:33;15.10;99.90
20496;DHT22;10406;54.132;17.968;2022-09-17T10:47:13;15.50;99.90
20496;DHT22;10406;54.132;17.968;2022-09-17T10:52:47;15.60;99.90
20496;DHT22;10406;54.132;17.968;2022-09-17T10:58:22;16.30;99.90
20496;DHT22;10406;54.132;17.968;2022-09-17T11:04:20;16.10;99.90
20496;DHT22;10406;54.132;17.968;2022-09-17T11:09:54;15.80;99.90
20496;DHT22;10406;54.132;17.968;2022-09-17T11:15:34;15.70;99.90
20496;DHT22;10406;54.132;17.968;2022-09-17T11:21:31;15.20;99.90
20496;DHT22;10406;54.132;17.968;2022-09-17T11:27:04;14.60;99.90
20496;DHT22;10406;54.132;17.968;2022-09-17T11:32:55;15.50;99.90
20496;DHT22;10406;54.132;17.968;2022-09-17T11:38:24;16.40;99.90
20496;DHT22;10406;54.132;17.968;2022-09-17T11:44:07;17.00;99.90
20496;DHT22;10406;54.132;17.968;2022-09-17T11:49:33;17.30;99.90
20496;DHT22;10406;54.132;17.968;2022-09-17T11:55:09;17.70;99.90
20496;DHT22;10406;54.132;17.968;2022-09-17T12:00:41;17.50;99.90
20496;DHT22;10406;54.132;17.968;2022-09-17T12:06:08;17.60;99.90
20496;DHT22;10406;54.132;17.968;2022-09-17T12:11:40;17.60;99.90
20496;DHT22;10406;54.132;17.968;2022-09-17T12:17:03;17.70;99.90
20496;DHT22;10406;54.132;17.968;2022-09-17T12:22:43;17.80;99.90
20496;DHT22;10406;54.132;17.968;2022-09-17T12:28:14;17.60;99.90
20496;DHT22;10406;54.132;17.968;2022-09-17T12:33:41;17.40;99.90
20496;DHT22;10406;54.132;17.968;2022-09-17T12:45:20;17.60;99.90
20496;DHT22;10406;54.132;17.968;2022-09-17T12:50:57;17.90;99.90
20496;DHT22;10406;54.132;17.968;2022-09-17T12:56:45;17.90;99.90
20496;DHT22;10406;54.132;17.968;2022-09-17T13:02:24;17.60;99.90
20496;DHT22;10406;54.132;17.968;2022-09-17T13:14:40;17.20;99.90
20496;DHT22;10406;54.132;17.968;2022-09-17T13:26:46;17.30;99.90
20496;DHT22;10406;54.132;17.968;2022-09-17T13:32:46;17.50;99.90
20496;DHT22;10406;54.132;17.968;2022-09-17T13:38:42;17.70;99.90
20496;DHT22;10406;54.132;17.968;2022-09-17T13:44:22;17.60;99.90
20496;DHT22;10406;54.132;17.968;2022-09-17T13:49:51;17.40;99.90
20496;DHT22;10406;54.132;17.968;2022-09-17T13:55:34;17.20;99.90
20496;DHT22;10406;54.132;17.968;2022-09-17T14:00:58;16.90;99.90
20496;DHT22;10406;54.132;17.968;2022-09-17T14:06:49;16.70;99.90
20496;DHT22;10406;54.132;17.968;2022-09-17T14:12:56;16.40;99.90
20496;DHT22;10406;54.132;17.968;2022-09-17T14:18:42;16.30;99.90
20496;DHT22;10406;54.132;17.968;2022-09-17T14:24:19;15.70;99.90
20496;DHT22;10406;54.132;17.968;2022-09-17T14:30:04;15.60;99.90
20496;DHT22;10406;54.132;17.968;2022-09-17T14:35:51;14.90;99.90
20496;DHT22;10406;54.132;17.968;2022-09-17T14:41:31;14.30;99.90
20496;DHT22;10406;54.132;17.968;2022-09-17T14:47:11;14.00;99.90
20496;DHT22;10406;54.132;17.968;2022-09-17T14:52:47;13.90;99.90
20496;DHT22;10406;54.132;17.968;2022-09-17T14:58:26;13.80;99.90
20496;DHT22;10406;54.132;17.968;2022-09-17T15:09:47;13.70;99.90
20496;DHT22;10406;54.132;17.968;2022-09-17T15:15:16;13.80;99.90
20496;DHT22;10406;54.132;17.968;2022-09-17T15:20:46;13.90;99.90
20496;DHT22;10406;54.132;17.968;2022-09-17T15:26:08;14.00;99.90
20496;DHT22;10406;54.132;17.968;2022-09-17T15:31:31;14.30;99.90
20496;DHT22;10406;54.132;17.968;2022-09-17T15:37:06;14.50;99.90
20496;DHT22;10406;54.132;17.968;2022-09-17T15:42:28;14.60;99.90
20496;DHT22;10406;54.132;17.968;2022-09-17T15:47:57;14.50;99.90
20496;DHT22;10406;54.132;17.968;2022-09-17T15:53:22;14.30;99.90
20496;DHT22;10406;54.132;17.968;2022-09-17T15:58:58;14.00;99.90
20496;DHT22;10406;54.132;17.968;2022-09-17T16:04:27;13.60;99.90
20496;DHT22;10406;54.132;17.968;2022-09-17T16:09:49;13.30;99.90
20496;DHT22;10406;54.132;17.968;2022-09-17T16:15:13;13.20;99.90
20496;DHT22;10406;54.132;17.968;2022-09-17T16:20:38;13.10;99.90
20496;DHT22;10406;54.132;17.968;2022-09-17T16:25:59;12.90;99.90
20496;DHT22;10406;54.132;17.968;2022-09-17T16:31:23;12.60;99.90
20496;DHT22;10406;54.132;17.968;2022-09-17T16:36:49;12.40;99.90
20496;DHT22;10406;54.132;17.968;2022-09-17T16:42:30;12.10;99.90
20496;DHT22;10406;54.132;17.968;2022-09-17T16:47:52;12.00;99.90
20496;DHT22;10406;54.132;17.968;2022-09-17T16:53:24;11.90;99.90
20496;DHT22;10406;54.132;17.968;2022-09-17T16:58:47;11.70;99.90
20496;DHT22;10406;54.132;17.968;2022-09-17T17:04:14;11.50;99.90
20496;DHT22;10406;54.132;17.968;2022-09-17T17:09:51;11.50;99.90
20496;DHT22;10406;54.132;17.968;2022-09-17T17:21:16;11.10;99.90
20496;DHT22;10406;54.132;17.968;2022-09-17T17:26:42;11.10;99.90
20496;DHT22;10406;54.132;17.968;2022-09-17T17:32:07;11.10;99.90
20496;DHT22;10406;54.132;17.968;2022-09-17T17:37:43;11.10;99.90
20496;DHT22;10406;54.132;17.968;2022-09-17T17:43:06;11.00;99.90
20496;DHT22;10406;54.132;17.968;2022-09-17T17:48:32;11.00;99.90
20496;DHT22;10406;54.132;17.968;2022-09-17T17:53:54;10.80;99.90
20496;DHT22;10406;54.132;17.968;2022-09-17T17:59:21;10.80;99.90
20496;DHT22;10406;54.132;17.968;2022-09-17T18:04:52;10.70;99.90
20496;DHT22;10406;54.132;17.968;2022-09-17T18:10:32;10.50;99.90
20496;DHT22;10406;54.132;17.968;2022-09-17T18:16:05;10.30;99.90
20496;DHT22;10406;54.132;17.968;2022-09-17T18:21:28;10.20;99.90
20496;DHT22;10406;54.132;17.968;2022-09-17T18:26:50;10.10;99.90
20496;DHT22;10406;54.132;17.968;2022-09-17T18:32:13;10.00;99.90
20496;DHT22;10406;54.132;17.968;2022-09-17T18:37:36;10.10;99.90
20496;DHT22;10406;54.132;17.968;2022-09-17T18:42:58;10.10;99.90
20496;DHT22;10406;54.132;17.968;2022-09-17T18:48:21;10.00;99.90
20496;DHT22;10406;54.132;17.968;2022-09-17T18:53:42;9.90;99.90
20496;DHT22;10406;54.132;17.968;2022-09-17T18:59:04;10.00;99.90
20496;DHT22;10406;54.132;17.968;2022-09-17T19:04:26;10.10;99.90
20496;DHT22;10406;54.132;17.968;2022-09-17T19:09:47;10.00;99.90
20496;DHT22;10406;54.132;17.968;2022-09-17T19:15:09;10.00;99.90
20496;DHT22;10406;54.132;17.968;2022-09-17T19:20:32;10.20;99.90
20496;DHT22;10406;54.132;17.968;2022-09-17T19:25:57;10.30;99.90
20496;DHT22;10406;54.132;17.968;2022-09-17T19:31:24;10.40;99.90
20496;DHT22;10406;54.132;17.968;2022-09-17T19:36:46;10.30;99.90
20496;DHT22;10406;54.132;17.968;2022-09-17T19:42:09;10.40;99.90
20496;DHT22;10406;54.132;17.968;2022-09-17T19:47:33;10.10;99.90
20496;DHT22;10406;54.132;17.968;2022-09-17T19:52:55;10.00;99.90
20496;DHT22;10406;54.132;17.968;2022-09-17T19:58:40;10.20;99.90
20496;DHT22;10406;54.132;17.968;2022-09-17T20:04:16;10.00;99.90
20496;DHT22;10406;54.132;17.968;2022-09-17T20:10:07;10.10;99.90
20496;DHT22;10406;54.132;17.968;2022-09-17T20:15:32;10.00;99.90
20496;DHT22;10406;54.132;17.968;2022-09-17T20:20:54;10.20;99.90
20496;DHT22;10406;54.132;17.968;2022-09-17T20:26:22;10.30;99.90
20496;DHT22;10406;54.132;17.968;2022-09-17T20:31:44;10.30;99.90
20496;DHT22;10406;54.132;17.968;2022-09-17T20:37:05;10.30;99.90
20496;DHT22;10406;54.132;17.968;2022-09-17T20:42:28;10.30;99.90
20496;DHT22;10406;54.132;17.968;2022-09-17T20:47:49;10.20;99.90
20496;DHT22;10406;54.132;17.968;2022-09-17T20:53:10;10.10;99.90
20496;DHT22;10406;54.132;17.968;2022-09-17T20:58:34;10.00;99.90
20496;DHT22;10406;54.132;17.968;2022-09-17T21:04:05;10.10;99.90
20496;DHT22;10406;54.132;17.968;2022-09-17T21:09:36;9.90;99.90
20496;DHT22;10406;54.132;17.968;2022-09-17T21:15:03;9.90;99.90
20496;DHT22;10406;54.132;17.968;2022-09-17T21:20:24;9.70;99.90
20496;DHT22;10406;54.132;17.968;2022-09-17T21:25:47;9.70;99.90
20496;DHT22;10406;54.132;17.968;2022-09-17T21:31:14;9.60;99.90
20496;DHT22;10406;54.132;17.968;2022-09-17T21:36:37;9.60;99.90
20496;DHT22;10406;54.132;17.968;2022-09-17T21:42:03;9.60;99.90
20496;DHT22;10406;54.132;17.968;2022-09-17T21:47:36;9.50;99.90
20496;DHT22;10406;54.132;17.968;2022-09-17T21:53:05;9.50;99.90
20496;DHT22;10406;54.132;17.968;2022-09-17T21:58:34;9.70;99.90
20496;DHT22;10406;54.132;17.968;2022-09-17T22:04:08;9.90;99.90
20496;DHT22;10406;54.132;17.968;2022-09-17T22:09:44;10.10;99.90
20496;DHT22;10406;54.132;17.968;2022-09-17T22:15:14;10.50;99.90
20496;DHT22;10406;54.132;17.968;2022-09-17T22:20:40;10.60;99.90
20496;DHT22;10406;54.132;17.968;2022-09-17T22:26:04;10.70;99.90
20496;DHT22;10406;54.132;17.968;2022-09-17T22:31:26;10.30;99.90
20496;DHT22;10406;54.132;17.968;2022-09-17T22:36:49;10.80;99.90
20496;DHT22;10406;54.132;17.968;2022-09-17T22:42:10;10.80;99.90
20496;DHT22;10406;54.132;17.968;2022-09-17T22:47:31;10.80;99.90
20496;DHT22;10406;54.132;17.968;2022-09-17T22:52:56;10.80;99.90
20496;DHT22;10406;54.132;17.968;2022-09-17T22:58:18;10.80;99.90
20496;DHT22;10406;54.132;17.968;2022-09-17T23:03:43;10.80;99.90
20496;DHT22;10406;54.132;17.968;2022-09-17T23:09:08;10.70;99.90
20496;DHT22;10406;54.132;17.968;2022-09-17T23:14:29;10.80;99.90
20496;DHT22;10406;54.132;17.968;2022-09-17T23:19:50;10.80;99.90
20496;DHT22;10406;54.132;17.968;2022-09-17T23:25:13;10.70;99.90
20496;DHT22;10406;54.132;17.968;2022-09-17T23:30:35;10.80;99.90
20496;DHT22;10406;54.132;17.968;2022-09-17T23:36:03;10.80;99.90
20496;DHT22;10406;54.132;17.968;2022-09-17T23:41:26;10.80;99.90
20496;DHT22;10406;54.132;17.968;2022-09-17T23:46:47;10.80;99.90
20496;DHT22;10406;54.132;17.968;2022-09-17T23:52:11;10.70;99.90
20496;DHT22;10406;54.132;17.968;2022-09-17T23:57:34;10.70;99.90
